Time;durP1;ratioP1;P1;durP2;ratioP2;P2;SDS_P1;SDS_P2;PMS_P1;PMS_P2;Temp;Humidity;BMP_temperature;BMP_pressure;BME280_temperature;BME280_humidity;BME280_pressure;Samples;Min_cycle;Max_cycle;Signal;HPM_P1;HPM_P2
2023/10/26 00:02:12;;;;;;;;;;;;;;;7.18;100.00;99627.38;5042225;28;19958;-80
2023/10/26 00:04:58;;;;;;;;;;;;;;;7.19;100.00;99628.22;5023415;28;19952;-79
2023/10/26 00:07:44;;;;;;;;;;;;;;;7.20;100.00;99636.03;5022572;28;19932;-81
2023/10/26 00:10:30;;;;;;;;;;;;;;;7.20;100.00;99628.13;5020483;28;19928;-80
2023/10/26 00:13:15;;;;;;;;;;;;;;;7.19;100.00;99639.59;5036990;28;19940;-80
2023/10/26 00:16:04;;;;;;;;;;;;;;;7.18;100.00;99639.69;5017696;28;19940;-80
2023/10/26 00:18:50;;;;;;;;;;;;;;;7.16;100.00;99650.31;5043817;28;20016;-79
2023/10/26 00:21:36;;;;;;;;;;;;;;;7.14;100.00;99646.88;5030575;28;19928;-80
2023/10/26 00:24:22;;;;;;;;;;;;;;;7.13;100.00;99645.19;5029791;28;20313;-80
2023/10/26 00:27:07;;;;;;;;;;;;;;;7.14;100.00;99649.50;5044524;28;19932;-80
2023/10/26 00:29:53;;;;;;;;;;;;;;;7.14;100.00;99656.56;5044165;28;20027;-80
2023/10/26 00:32:42;;;;;;;;;;;;;;;7.13;100.00;99650.44;5042384;28;19952;-80
2023/10/26 00:35:27;;;;;;;;;;;;;;;7.14;100.00;99648.66;5029366;28;19967;-80
2023/10/26 00:38:14;;;;;;;;;;;;;;;7.15;100.00;99658.28;5042102;28;20011;-79
2023/10/26 00:40:59;;;;;;;;;;;;;;;7.16;100.00;99660.84;5045185;28;19975;-78
2023/10/26 00:43:47;;;;;;;;;;;;;;;7.19;100.00;99659.81;5047103;28;19956;-80
2023/10/26 00:46:34;;;;;;;;;;;;;;;7.20;100.00;99659.72;5031043;28;20427;-80
2023/10/26 00:49:20;;;;;;;;;;;;;;;7.21;100.00;99665.84;5025802;28;19928;-80
2023/10/26 00:52:05;;;;;;;;;;;;;;;7.22;100.00;99667.56;5042417;28;19940;-80
2023/10/26 00:54:56;;;;;;;;;;;;;;;7.22;100.00;99675.47;5044385;28;19935;-79
2023/10/26 00:57:42;;;;;;;;;;;;;;;7.23;100.00;99673.69;5029909;28;19929;-79
2023/10/26 01:00:28;;;;;;;;;;;;;;;7.26;100.00;99684.06;5025397;28;19925;-79
2023/10/26 01:03:14;;;;;;;;;;;;;;;7.26;100.00;99684.06;5045345;28;19921;-80
2023/10/26 01:05:59;;;;;;;;;;;;;;;7.28;100.00;99684.81;5030846;28;19933;-80
2023/10/26 01:08:45;;;;;;;;;;;;;;;7.28;100.00;99690.09;5042923;28;20024;-80
2023/10/26 01:11:30;;;;;;;;;;;;;;;7.29;100.00;99682.13;5032711;28;20039;-80
2023/10/26 01:14:16;;;;;;;;;;;;;;;7.31;100.00;99687.31;5045833;28;19978;-79
2023/10/26 01:17:05;;;;;;;;;;;;;;;7.33;100.00;99691.56;5045310;28;19946;-80
2023/10/26 01:19:53;;;;;;;;;;;;;;;7.35;100.00;99691.47;5013557;28;19975;-78
2023/10/26 01:22:39;;;;;;;;;;;;;;;7.36;100.00;99693.22;5045819;28;19936;-80
2023/10/26 01:25:28;;;;;;;;;;;;;;;7.38;100.00;99704.50;5045496;28;19928;-80
2023/10/26 01:28:14;;;;;;;;;;;;;;;7.40;100.00;99702.63;5023800;28;19982;-80
2023/10/26 01:30:59;;;;;;;;;;;;;;;7.41;100.00;99696.44;5042069;28;19933;-80
2023/10/26 01:33:45;;;;;;;;;;;;;;;7.42;100.00;99690.22;5042822;28;19971;-80
2023/10/26 01:36:31;;;;;;;;;;;;;;;7.43;100.00;99683.19;5041573;28;20004;-79
2023/10/26 01:39:17;;;;;;;;;;;;;;;7.42;100.00;99677.06;5043243;28;20395;-81
2023/10/26 01:42:03;;;;;;;;;;;;;;;7.40;100.00;99672.84;5029632;28;19939;-80
2023/10/26 01:44:49;;;;;;;;;;;;;;;7.38;100.00;99686.06;5042527;28;19935;-79
2023/10/26 01:47:35;;;;;;;;;;;;;;;7.37;100.00;99687.00;5023116;28;19925;-80
2023/10/26 01:50:21;;;;;;;;;;;;;;;7.35;100.00;99694.09;5041570;28;19936;-79
2023/10/26 01:53:07;;;;;;;;;;;;;;;7.36;100.00;99702.88;5041794;28;20510;-80
2023/10/26 01:55:52;;;;;;;;;;;;;;;7.33;100.00;99695.97;5026760;28;20775;-79
2023/10/26 01:58:38;;;;;;;;;;;;;;;7.34;100.00;99701.19;5043064;28;20296;-80
2023/10/26 02:01:24;;;;;;;;;;;;;;;7.36;100.00;99705.50;5026292;28;19932;-80
2023/10/26 02:04:10;;;;;;;;;;;;;;;7.38;100.00;99696.59;5040853;28;19932;-80
2023/10/26 02:06:55;;;;;;;;;;;;;;;7.41;100.00;99706.13;5040427;28;19968;-80
2023/10/26 02:09:41;;;;;;;;;;;;;;;7.42;100.00;99698.13;5040207;28;20406;-80
2023/10/26 02:12:27;;;;;;;;;;;;;;;7.44;100.00;99701.56;5026699;28;20019;-79
2023/10/26 02:15:12;;;;;;;;;;;;;;;7.47;100.00;99709.28;5043291;28;19929;-80
2023/10/26 02:17:58;;;;;;;;;;;;;;;7.51;100.00;99698.63;5022122;28;19924;-78
2023/10/26 02:20:44;;;;;;;;;;;;;;;7.53;100.00;99699.38;5038952;28;19932;-79
2023/10/26 02:23:30;;;;;;;;;;;;;;;7.57;100.00;99695.69;5041840;28;19929;-80
2023/10/26 02:26:15;;;;;;;;;;;;;;;7.60;100.00;99684.97;5013969;28;20314;-80
2023/10/26 02:29:01;;;;;;;;;;;;;;;7.61;100.00;99684.03;5028074;28;19939;-79
2023/10/26 02:31:46;;;;;;;;;;;;;;;7.61;100.00;99687.53;5044081;28;19925;-81
2023/10/26 02:34:32;;;;;;;;;;;;;;;7.60;100.00;99685.84;5044004;28;20465;-80
2023/10/26 02:37:18;;;;;;;;;;;;;;;7.59;100.00;99683.28;5035744;28;19933;-81
2023/10/26 02:40:05;;;;;;;;;;;;;;;7.57;100.00;99690.41;5029310;28;19954;-80
2023/10/26 02:42:50;;;;;;;;;;;;;;;7.53;100.00;99694.13;5025288;28;20456;-81
2023/10/26 02:45:36;;;;;;;;;;;;;;;7.50;100.00;99699.53;5011945;28;19925;-79
2023/10/26 02:48:22;;;;;;;;;;;;;;;7.50;100.00;99704.78;5043609;28;19932;-80
2023/10/26 02:51:07;;;;;;;;;;;;;;;7.49;100.00;99709.22;5042488;28;20039;-78
2023/10/26 02:53:53;;;;;;;;;;;;;;;7.47;100.00;99709.28;5038299;28;19924;-80
2023/10/26 02:56:38;;;;;;;;;;;;;;;7.45;100.00;99705.91;5040554;28;19929;-79
2023/10/26 02:59:24;;;;;;;;;;;;;;;7.44;100.00;99706.84;5027732;28;19936;-79
2023/10/26 03:02:10;;;;;;;;;;;;;;;7.41;100.00;99703.50;5020899;28;19921;-80
2023/10/26 03:04:56;;;;;;;;;;;;;;;7.39;100.00;99694.81;5021554;28;19939;-80
2023/10/26 03:07:45;;;;;;;;;;;;;;;7.39;100.00;99700.06;5040584;28;20387;-80
2023/10/26 03:10:31;;;;;;;;;;;;;;;7.37;100.00;99701.94;5041894;28;19929;-80
2023/10/26 03:13:17;;;;;;;;;;;;;;;7.33;100.00;99707.38;5039528;28;19941;-80
2023/10/26 03:16:02;;;;;;;;;;;;;;;7.30;100.00;99704.03;5040673;28;20350;-79
2023/10/26 03:18:48;;;;;;;;;;;;;;;7.27;100.00;99701.53;5039757;28;19939;-78
2023/10/26 03:21:34;;;;;;;;;;;;;;;7.23;100.00;99698.22;5022699;28;19927;-80
2023/10/26 03:24:20;;;;;;;;;;;;;;;7.19;100.00;99701.91;5040840;28;20012;-80
2023/10/26 03:27:05;;;;;;;;;;;;;;;7.15;100.00;99701.22;5039648;28;19990;-80
2023/10/26 03:29:52;;;;;;;;;;;;;;;7.13;100.00;99702.25;5023086;28;20002;-80
2023/10/26 03:32:38;;;;;;;;;;;;;;;7.09;100.00;99701.56;5041059;28;19975;-79
2023/10/26 03:35:23;;;;;;;;;;;;;;;7.06;100.00;99699.06;5043843;28;19924;-79
2023/10/26 03:38:09;;;;;;;;;;;;;;;7.03;100.00;99693.94;5042339;28;19955;-80
2023/10/26 03:40:59;;;;;;;;;;;;;;;6.99;100.00;99685.34;5015736;28;19929;-80
2023/10/26 03:43:44;;;;;;;;;;;;;;;6.98;100.00;99685.44;5028970;28;19928;-80
2023/10/26 03:46:30;;;;;;;;;;;;;;;6.97;100.00;99696.88;5041022;28;19988;-80
2023/10/26 03:49:16;;;;;;;;;;;;;;;6.92;100.00;99690.06;5046418;28;19932;-81
2023/10/26 03:52:01;;;;;;;;;;;;;;;6.88;100.00;99687.66;5032774;28;19952;-80
2023/10/26 03:54:47;;;;;;;;;;;;;;;6.88;100.00;99696.41;5044818;28;19928;-79
2023/10/26 03:57:33;;;;;;;;;;;;;;;6.89;100.00;99698.09;5044387;28;20383;-80
2023/10/26 04:00:19;;;;;;;;;;;;;;;6.88;100.00;99688.50;5042179;28;19928;-80
2023/10/26 04:03:04;;;;;;;;;;;;;;;6.86;100.00;99689.50;5044933;28;19924;-81
2023/10/26 04:05:50;;;;;;;;;;;;;;;6.86;100.00;99694.78;5045927;28;19929;-80
2023/10/26 04:08:37;;;;;;;;;;;;;;;6.84;100.00;99694.84;5045532;28;19928;-79
2023/10/26 04:11:24;;;;;;;;;;;;;;;6.75;100.00;99685.59;5044369;28;20843;-80
2023/10/26 04:14:09;;;;;;;;;;;;;;;6.72;100.00;99684.91;5012782;28;20392;-81
2023/10/26 04:16:55;;;;;;;;;;;;;;;6.68;100.00;99685.97;5031310;28;19935;-80
2023/10/26 04:19:43;;;;;;;;;;;;;;;6.58;100.00;99683.78;5028790;28;19929;-80
2023/10/26 04:22:29;;;;;;;;;;;;;;;6.56;100.00;99682.16;5029526;28;20140;-79
2023/10/26 04:25:14;;;;;;;;;;;;;;;6.49;100.00;99677.16;5042858;28;19933;-80
2023/10/26 04:28:00;;;;;;;;;;;;;;;6.38;100.00;99677.69;5041767;28;20011;-79
2023/10/26 04:30:47;;;;;;;;;;;;;;;6.33;100.00;99671.78;5028000;28;20672;-80
2023/10/26 04:33:32;;;;;;;;;;;;;;;6.31;100.00;99676.25;5042842;28;19940;-81
2023/10/26 04:36:19;;;;;;;;;;;;;;;6.25;100.00;99673.91;5045006;28;19940;-80
2023/10/26 04:39:08;;;;;;;;;;;;;;;6.18;100.00;99677.75;5028891;28;19928;-80
2023/10/26 04:41:57;;;;;;;;;;;;;;;6.14;100.00;99670.94;5030467;28;19940;-79
2023/10/26 04:44:42;;;;;;;;;;;;;;;6.10;100.00;99665.81;5031237;28;20487;-81
2023/10/26 04:47:28;;;;;;;;;;;;;;;6.07;100.00;99665.97;5016607;28;20338;-80
2023/10/26 04:50:14;;;;;;;;;;;;;;;6.06;100.00;99663.41;5029393;28;19925;-79
2023/10/26 04:53:02;;;;;;;;;;;;;;;6.03;100.00;99668.78;5029855;28;19932;-79
2023/10/26 04:55:47;;;;;;;;;;;;;;;6.00;100.00;99671.53;5040636;28;19932;-80
2023/10/26 04:58:33;;;;;;;;;;;;;;;5.95;100.00;99666.47;5028959;28;19932;-80
2023/10/26 05:01:20;;;;;;;;;;;;;;;5.91;100.00;99665.78;5039780;28;19932;-80
2023/10/26 05:04:05;;;;;;;;;;;;;;;5.87;100.00;99663.34;5044100;28;19944;-79
2023/10/26 05:06:51;;;;;;;;;;;;;;;5.85;100.00;99664.25;5042988;28;19996;-80
2023/10/26 05:09:37;;;;;;;;;;;;;;;5.85;100.00;99666.03;5028113;28;19952;-79
2023/10/26 05:12:25;;;;;;;;;;;;;;;5.84;100.00;99659.91;5027248;28;19932;-80
2023/10/26 05:15:11;;;;;;;;;;;;;;;5.81;100.00;99657.44;5042031;28;20007;-80
2023/10/26 05:17:56;;;;;;;;;;;;;;;5.79;100.00;99654.03;5042291;28;20002;-79
2023/10/26 05:20:46;;;;;;;;;;;;;;;5.75;100.00;99662.09;5045163;28;19932;-80
2023/10/26 05:23:32;;;;;;;;;;;;;;;5.69;100.00;99658.84;5025785;28;19928;-80
2023/10/26 05:26:18;;;;;;;;;;;;;;;5.65;100.00;99659.91;5042845;28;20021;-80
2023/10/26 05:29:04;;;;;;;;;;;;;;;5.61;100.00;99660.94;5015609;28;19928;-80
2023/10/26 05:31:52;;;;;;;;;;;;;;;5.56;100.00;99655.88;5042856;28;20040;-80
2023/10/26 05:34:37;;;;;;;;;;;;;;;5.49;100.00;99656.25;5031039;28;20078;-79
2023/10/26 05:37:23;;;;;;;;;;;;;;;5.48;100.00;99654.50;5028887;28;19929;-80
2023/10/26 05:40:09;;;;;;;;;;;;;;;5.45;100.00;99652.88;5029382;28;19931;-81
2023/10/26 05:42:55;;;;;;;;;;;;;;;5.45;100.00;99647.63;5025678;28;19929;-80
2023/10/26 05:45:40;;;;;;;;;;;;;;;5.43;100.00;99652.09;5040480;28;19978;-80
2023/10/26 05:48:26;;;;;;;;;;;;;;;5.42;100.00;99647.75;5041117;28;20203;-80
2023/10/26 05:51:11;;;;;;;;;;;;;;;5.45;100.00;99650.25;5040584;28;19932;-79
2023/10/26 05:53:57;;;;;;;;;;;;;;;5.46;100.00;99646.72;5042257;28;20303;-80
2023/10/26 05:56:43;;;;;;;;;;;;;;;5.48;100.00;99644.00;5039511;28;21816;-79
2023/10/26 05:59:28;;;;;;;;;;;;;;;5.50;100.00;99650.91;5019080;28;19925;-79
2023/10/26 06:02:14;;;;;;;;;;;;;;;5.51;100.00;99652.59;5039653;28;19940;-79
2023/10/26 06:05:02;;;;;;;;;;;;;;;5.49;100.00;99653.63;5023864;28;19933;-80
2023/10/26 06:07:47;;;;;;;;;;;;;;;5.50;100.00;99658.78;5041522;28;20435;-79
2023/10/26 06:10:33;;;;;;;;;;;;;;;5.50;100.00;99658.78;5037173;28;19932;-79
2023/10/26 06:13:19;;;;;;;;;;;;;;;5.48;100.00;99663.25;5036734;28;20569;-80
2023/10/26 06:16:05;;;;;;;;;;;;;;;5.44;100.00;99662.53;5023047;28;19929;-80
2023/10/26 06:18:50;;;;;;;;;;;;;;;5.48;100.00;99665.88;5011841;28;19952;-80
2023/10/26 06:21:37;;;;;;;;;;;;;;;5.49;100.00;99661.50;5037693;28;19933;-80
2023/10/26 06:24:23;;;;;;;;;;;;;;;5.46;100.00;99670.34;5040278;28;19928;-80
2023/10/26 06:27:08;;;;;;;;;;;;;;;5.43;100.00;99667.84;5040167;28;19979;-79
2023/10/26 06:29:54;;;;;;;;;;;;;;;5.41;100.00;99677.56;5027716;28;19958;-79
2023/10/26 06:32:40;;;;;;;;;;;;;;;5.37;100.00;99675.97;5040322;28;20595;-80
2023/10/26 06:35:26;;;;;;;;;;;;;;;5.35;100.00;99677.81;5022177;28;19932;-80
2023/10/26 06:38:12;;;;;;;;;;;;;;;5.39;100.00;99677.63;5023740;28;19978;-80
2023/10/26 06:40:57;;;;;;;;;;;;;;;5.43;100.00;99670.47;5029853;28;19932;-79
2023/10/26 06:43:43;;;;;;;;;;;;;;;5.48;100.00;99667.63;5038991;28;19929;-80
2023/10/26 06:46:28;;;;;;;;;;;;;;;5.46;100.00;99670.34;5031593;28;19958;-80
2023/10/26 06:49:14;;;;;;;;;;;;;;;5.51;100.00;99665.72;5046234;28;19925;-79
2023/10/26 06:52:01;;;;;;;;;;;;;;;5.51;100.00;99657.84;5026276;28;19928;-79
2023/10/26 06:54:51;;;;;;;;;;;;;;;5.55;100.00;99664.69;5039808;28;22093;-79
2023/10/26 06:57:36;;;;;;;;;;;;;;;5.60;100.00;99661.84;5027788;28;20420;-79
2023/10/26 07:00:22;;;;;;;;;;;;;;;5.67;100.00;99662.47;5021855;28;19979;-79
2023/10/26 07:03:08;;;;;;;;;;;;;;;5.70;100.00;99654.44;5033310;28;20044;-79
2023/10/26 07:05:53;;;;;;;;;;;;;;;5.72;100.00;99655.22;5037098;28;19925;-80
2023/10/26 07:08:39;;;;;;;;;;;;;;;5.70;100.00;99649.19;5023326;28;19928;-81
2023/10/26 07:11:24;;;;;;;;;;;;;;;5.72;100.00;99655.22;5038102;28;20055;-80
2023/10/26 07:14:10;;;;;;;;;;;;;;;5.74;100.00;99656.00;5031618;28;20104;-80
2023/10/26 07:16:56;;;;;;;;;;;;;;;5.80;100.00;99660.13;5036778;28;19924;-78
2023/10/26 07:19:42;;;;;;;;;;;;;;;5.81;100.00;99667.09;5035733;28;20553;-80
2023/10/26 07:22:28;;;;;;;;;;;;;;;5.78;100.00;99660.19;5036493;28;21765;-81
2023/10/26 07:25:13;;;;;;;;;;;;;;;5.74;100.00;99669.16;5015567;28;20563;-79
2023/10/26 07:27:59;;;;;;;;;;;;;;;5.69;100.00;99660.59;5033568;28;19929;-79
2023/10/26 07:30:50;;;;;;;;;;;;;;;5.69;100.00;99655.34;5017656;28;19990;-79
2023/10/26 07:33:38;;;;;;;;;;;;;;;5.69;100.00;99652.72;5035802;28;21231;-80
2023/10/26 07:36:26;;;;;;;;;;;;;;;5.72;100.00;99660.47;5038135;28;19924;-84
2023/10/26 07:39:11;;;;;;;;;;;;;;;5.74;100.00;99658.66;5027768;28;19940;-84
2023/10/26 07:41:57;;;;;;;;;;;;;;;5.84;100.00;99659.09;5041420;28;19929;-83
2023/10/26 07:44:43;;;;;;;;;;;;;;;5.90;100.00;99661.44;5022590;28;19940;-83
2023/10/26 07:47:28;;;;;;;;;;;;;;;5.92;100.00;99662.22;5007088;28;19933;-78
2023/10/26 07:50:17;;;;;;;;;;;;;;;5.98;100.00;99659.31;5038024;28;19929;-80
2023/10/26 07:53:03;;;;;;;;;;;;;;;6.03;100.00;99664.38;5038074;28;20576;-79
2023/10/26 07:55:50;;;;;;;;;;;;;;;6.08;100.00;99662.41;5037205;28;19929;-80
2023/10/26 07:58:36;;;;;;;;;;;;;;;6.14;100.00;99666.53;5022667;28;19960;-81
2023/10/26 08:01:21;;;;;;;;;;;;;;;6.20;100.00;99670.63;5039270;28;19929;-82
2023/10/26 08:04:07;;;;;;;;;;;;;;;6.26;100.00;99672.97;5039276;28;20403;-81
2023/10/26 08:06:53;;;;;;;;;;;;;;;6.31;100.00;99672.78;5023608;28;19933;-82
2023/10/26 08:09:41;;;;;;;;;;;;;;;6.38;100.00;99676.84;5023103;28;19928;-81
2023/10/26 08:12:27;;;;;;;;;;;;;;;6.45;100.00;99682.66;5034866;28;19929;-81
2023/10/26 08:15:12;;;;;;;;;;;;;;;6.52;100.00;99684.06;5039562;28;19964;-81
2023/10/26 08:17:58;;;;;;;;;;;;;;;6.55;100.00;99678.69;5038173;28;19933;-80
2023/10/26 08:20:48;;;;;;;;;;;;;;;6.65;100.00;99682.56;5024622;28;20023;-82
2023/10/26 08:23:34;;;;;;;;;;;;;;;6.76;100.00;99694.38;5038907;28;19929;-81
2023/10/26 08:26:22;;;;;;;;;;;;;;;6.81;100.00;99691.50;5008577;28;20026;-81
2023/10/26 08:29:08;;;;;;;;;;;;;;;6.87;100.00;99697.31;5010971;28;19928;-81
2023/10/26 08:31:54;;;;;;;;;;;;;;;6.93;100.00;99697.00;5036098;28;19997;-82
2023/10/26 08:34:39;;;;;;;;;;;;;;;7.02;100.00;99694.84;5040012;28;19931;-81
2023/10/26 08:37:27;;;;;;;;;;;;;;;7.09;100.00;99693.66;5027539;28;19933;-82
2023/10/26 08:40:12;;;;;;;;;;;;;;;7.16;100.00;99699.44;5031377;28;19959;-81
2023/10/26 08:43:00;;;;;;;;;;;;;;;7.26;100.00;99698.09;5041992;28;20631;-82
2023/10/26 08:45:45;;;;;;;;;;;;;;;7.29;100.00;99703.19;5044777;28;19936;-82
2023/10/26 08:48:35;;;;;;;;;;;;;;;7.35;100.00;99702.00;5039472;28;19928;-81
2023/10/26 08:51:20;;;;;;;;;;;;;;;7.39;100.00;99705.34;5027414;28;19982;-81
2023/10/26 08:54:06;;;;;;;;;;;;;;;7.43;100.00;99702.50;5040617;28;19963;-81
2023/10/26 08:56:51;;;;;;;;;;;;;;;7.51;100.00;99707.34;5044265;28;19935;-81
2023/10/26 08:59:37;;;;;;;;;;;;;;;7.59;100.00;99704.34;5041585;28;19925;-80
2023/10/26 09:02:23;;;;;;;;;;;;;;;7.64;100.00;99697.06;5037094;28;19929;-80
2023/10/26 09:05:10;;;;;;;;;;;;;;;7.72;100.00;99694.88;5040027;28;20079;-79
2023/10/26 09:07:56;;;;;;;;;;;;;;;7.80;100.00;99691.81;5008837;28;20023;-79
2023/10/26 09:10:42;;;;;;;;;;;;;;;7.89;100.00;99698.41;5040077;28;19929;-79
2023/10/26 09:13:28;;;;;;;;;;;;;;;7.96;100.00;99694.50;5040835;28;19956;-80
2023/10/26 09:16:14;;;;;;;;;;;;;;;8.05;100.00;99703.72;5026474;28;19957;-79
2023/10/26 09:18:59;;;;;;;;;;;;;;;8.12;100.00;99696.34;5038771;28;19928;-81
2023/10/26 09:21:56;;;;;;;;;;;;;;;8.19;100.00;99696.84;5038774;28;19932;-80
2023/10/26 09:24:42;;;;;;;;;;;;;;;8.26;100.00;99693.81;5006044;28;19939;-80
2023/10/26 09:27:27;;;;;;;;;;;;;;;8.29;100.00;99693.63;5031671;28;19929;-79
2023/10/26 09:30:26;;;;;;;;;;;;;;;8.32;100.00;99700.53;5035575;28;19933;-81
2023/10/26 09:33:22;;;;;;;;;;;;;;;8.33;100.00;99704.88;5023038;28;19979;-80
2023/10/26 09:36:12;;;;;;;;;;;;;;;8.37;100.00;99702.91;5016672;28;19968;-79
2023/10/26 09:38:57;;;;;;;;;;;;;;;8.33;100.00;99704.03;5019968;28;19925;-81
2023/10/26 09:41:43;;;;;;;;;;;;;;;8.35;100.00;99710.94;5020690;28;20330;-80
2023/10/26 09:44:29;;;;;;;;;;;;;;;8.35;100.00;99703.03;5023613;28;19932;-80
2023/10/26 09:47:15;;;;;;;;;;;;;;;8.38;100.00;99705.47;5018010;28;19929;-80
2023/10/26 09:50:01;;;;;;;;;;;;;;;8.39;100.00;99699.25;5034014;28;19924;-80
2023/10/26 09:52:46;;;;;;;;;;;;;;;8.39;100.00;99698.44;5022150;28;20294;-79
2023/10/26 09:55:32;;;;;;;;;;;;;;;8.43;100.00;99710.50;5030499;28;20273;-80
2023/10/26 09:58:18;;;;;;;;;;;;;;;8.47;100.00;99714.69;5020565;28;19939;-81
2023/10/26 10:01:23;;;;;;;;;;;;;;;8.49;100.00;99710.16;5026496;28;20418;-80
2023/10/26 10:04:09;;;;;;;;;;;;;;;8.53;100.00;99716.16;5024498;28;19929;-81
2023/10/26 10:06:58;;;;;;;;;;;;;;;8.49;100.00;99718.06;5041767;28;19932;-82
2023/10/26 10:10:02;;;;;;;;;;;;;;;8.46;100.00;99709.47;5037231;28;19935;-82
2023/10/26 10:12:51;;;;;;;;;;;;;;;8.51;100.00;99712.72;5038073;28;19929;-83
2023/10/26 10:15:38;;;;;;;;;;;;;;;8.53;100.00;99706.47;5016377;28;19925;-83
2023/10/26 10:18:24;;;;;;;;;;;;;;;8.51;100.00;99708.31;5025421;28;19932;-83
2023/10/26 10:21:29;;;;;;;;;;;;;;;8.50;100.00;99717.13;5041047;28;19936;-83
2023/10/26 10:24:34;;;;;;;;;;;;;;;8.56;100.00;99705.44;5024108;28;20424;-82
2023/10/26 10:27:20;;;;;;;;;;;;;;;8.60;100.00;99706.13;5034443;28;19993;-84
2023/10/26 10:30:09;;;;;;;;;;;;;;;8.62;100.00;99704.25;5039376;28;19928;-82
2023/10/26 10:32:58;;;;;;;;;;;;;;;8.67;100.00;99696.94;5009989;28;19987;-82
2023/10/26 10:35:45;;;;;;;;;;;;;;;8.73;100.00;99704.50;5022586;28;20485;-82
2023/10/26 10:38:31;;;;;;;;;;;;;;;8.73;100.00;99712.44;5015041;28;19971;-81
2023/10/26 10:41:17;;;;;;;;;;;;;;;8.76;100.00;99701.69;5021608;28;19928;-83
2023/10/26 10:44:03;;;;;;;;;;;;;;;8.73;100.00;99704.50;5011430;28;19932;-82
2023/10/26 10:46:48;;;;;;;;;;;;;;;8.71;100.00;99700.25;5043301;28;19928;-82
2023/10/26 10:49:34;;;;;;;;;;;;;;;8.73;100.00;99691.31;5040694;28;19925;-81
2023/10/26 10:52:19;;;;;;;;;;;;;;;8.79;100.00;99695.38;5037971;28;20066;-81
2023/10/26 10:55:05;;;;;;;;;;;;;;;8.78;100.00;99691.88;5021471;28;19975;-82
2023/10/26 10:57:52;;;;;;;;;;;;;;;8.88;100.00;99696.66;5038592;28;19932;-82
2023/10/26 11:00:42;;;;;;;;;;;;;;;8.98;100.00;99695.19;5030565;28;19967;-82
2023/10/26 11:03:28;;;;;;;;;;;;;;;9.05;100.00;99691.25;5022968;28;19924;-82
2023/10/26 11:06:17;;;;;;;;;;;;;;;9.09;100.00;99687.50;5027725;28;19933;-82
2023/10/26 11:09:03;;;;;;;;;;;;;;;9.09;100.00;99686.66;5027921;28;19928;-84
2023/10/26 11:11:48;;;;;;;;;;;;;;;9.10;100.00;99694.50;5012476;28;19932;-84
2023/10/26 11:14:34;;;;;;;;;;;;;;;9.14;100.00;99689.03;5039011;28;19952;-85
2023/10/26 11:17:20;;;;;;;;;;;;;;;9.14;100.00;99691.69;5025834;28;19963;-84
2023/10/26 11:20:10;;;;;;;;;;;;;;;9.17;100.00;99689.72;5042519;28;20000;-81
2023/10/26 11:22:56;;;;;;;;;;;;;;;9.13;100.00;99677.63;5041139;28;19932;-82
2023/10/26 11:25:42;;;;;;;;;;;;;;;9.13;100.00;99674.13;5008996;28;19928;-82
2023/10/26 11:28:36;;;;;;;;;;;;;;;9.15;100.00;99667.81;5039711;28;20002;-84
2023/10/26 11:31:39;;;;;;;;;;;;;;;9.15;100.00;99666.97;5023448;28;19964;-83
2023/10/26 11:34:27;;;;;;;;;;;;;;;9.09;100.00;99666.38;5025875;28;19929;-83
2023/10/26 11:37:13;;;;;;;;;;;;;;;9.03;100.00;99666.75;5021617;28;20024;-83
2023/10/26 11:39:59;;;;;;;;;;;;;;;8.97;100.00;99661.81;5018328;28;20026;-82
2023/10/26 11:42:45;;;;;;;;;;;;;;;9.00;100.00;99661.66;5009300;28;19983;-82
2023/10/26 11:45:38;;;;;;;;;;;;;;;9.09;100.00;99653.19;5034994;28;20376;-83
2023/10/26 11:48:24;;;;;;;;;;;;;;;9.17;100.00;99657.16;5022330;28;19925;-83
2023/10/26 11:51:10;;;;;;;;;;;;;;;9.22;100.00;99655.94;5025024;28;19924;-81
2023/10/26 11:53:56;;;;;;;;;;;;;;;9.22;100.00;99657.75;5025651;28;21887;-83
2023/10/26 11:56:42;;;;;;;;;;;;;;;9.22;100.00;99649.84;5024738;28;19982;-80
2023/10/26 11:59:27;;;;;;;;;;;;;;;9.27;100.00;99639.84;5036926;28;20364;-84
2023/10/26 12:02:16;;;;;;;;;;;;;;;9.30;100.00;99642.28;5024744;28;20926;-82
2023/10/26 12:05:03;;;;;;;;;;;;;;;9.34;100.00;99638.53;5036712;28;20970;-81
2023/10/26 12:07:49;;;;;;;;;;;;;;;9.40;100.00;99636.44;5040382;28;19929;-81
2023/10/26 12:10:34;;;;;;;;;;;;;;;9.44;100.00;99638.84;5024461;28;19947;-82
2023/10/26 12:13:20;;;;;;;;;;;;;;;9.54;100.00;99639.16;5032576;28;19944;-82
2023/10/26 12:16:06;;;;;;;;;;;;;;;9.59;100.00;99644.97;5044777;28;19929;-82
2023/10/26 12:18:51;;;;;;;;;;;;;;;9.63;100.00;99643.84;5027596;28;19925;-82
2023/10/26 12:21:37;;;;;;;;;;;;;;;9.66;100.00;99642.81;5028469;28;19976;-81
2023/10/26 12:24:23;;;;;;;;;;;;;;;9.64;100.00;99648.19;5015054;28;20952;-82
2023/10/26 12:27:16;;;;;;;;;;;;;;;9.64;100.00;99650.84;5041706;28;19924;-82
2023/10/26 12:30:01;;;;;;;;;;;;;;;9.64;100.00;99650.84;5043045;28;20360;-82
2023/10/26 12:32:47;;;;;;;;;;;;;;;9.71;100.00;99643.41;5024329;28;19924;-82
2023/10/26 12:35:33;;;;;;;;;;;;;;;9.71;100.00;99640.75;5028149;28;21385;-82
2023/10/26 12:38:19;;;;;;;;;;;;;;;9.69;100.00;99644.44;5043309;28;19933;-82
2023/10/26 12:41:05;;;;;;;;;;;;;;;9.64;100.00;99640.28;5043973;28;20446;-81
2023/10/26 12:43:50;;;;;;;;;;;;;;;9.60;100.00;99635.28;5041757;28;19929;-80
2023/10/26 12:46:36;;;;;;;;;;;;;;;9.57;100.00;99636.31;5027076;28;19937;-80
2023/10/26 12:49:22;;;;;;;;;;;;;;;9.51;100.00;99640.19;5041018;28;19963;-81
2023/10/26 12:52:07;;;;;;;;;;;;;;;9.47;100.00;99636.00;5029028;28;20040;-82
2023/10/26 12:54:53;;;;;;;;;;;;;;;9.45;100.00;99629.13;5040451;28;19933;-82
2023/10/26 12:57:39;;;;;;;;;;;;;;;9.39;100.00;99635.63;5028654;28;19925;-81
2023/10/26 13:00:25;;;;;;;;;;;;;;;9.36;100.00;99638.44;5041966;28;19929;-81
2023/10/26 13:03:10;;;;;;;;;;;;;;;9.31;100.00;99628.16;5040007;28;20129;-80
2023/10/26 13:05:56;;;;;;;;;;;;;;;9.30;100.00;99621.16;5042250;28;20403;-80
2023/10/26 13:08:42;;;;;;;;;;;;;;;9.30;100.00;99615.03;5041786;28;19965;-81
2023/10/26 13:11:27;;;;;;;;;;;;;;;9.29;100.00;99619.47;5028550;28;19932;-79
2023/10/26 13:14:16;;;;;;;;;;;;;;;9.29;100.00;99618.59;5038953;28;19932;-81
2023/10/26 13:17:02;;;;;;;;;;;;;;;9.31;100.00;99616.75;5040907;28;19920;-83
2023/10/26 13:19:47;;;;;;;;;;;;;;;9.33;100.00;99615.69;5029833;28;20295;-82
2023/10/26 13:22:33;;;;;;;;;;;;;;;9.33;100.00;99617.50;5046070;28;19947;-81
2023/10/26 13:25:22;;;;;;;;;;;;;;;9.32;100.00;99619.28;5045848;28;19932;-81
2023/10/26 13:28:08;;;;;;;;;;;;;;;9.31;100.00;99611.47;5013275;28;19993;-81
2023/10/26 13:30:53;;;;;;;;;;;;;;;9.32;100.00;99615.81;5044236;28;19933;-81
2023/10/26 13:33:39;;;;;;;;;;;;;;;9.33;100.00;99615.69;5032539;28;19979;-83
2023/10/26 13:36:25;;;;;;;;;;;;;;;9.34;100.00;99614.78;5044356;28;19935;-82
2023/10/26 13:39:10;;;;;;;;;;;;;;;9.34;100.00;99605.97;5027737;28;19963;-82
2023/10/26 13:41:56;;;;;;;;;;;;;;;9.33;100.00;99599.84;5042689;28;19925;-82
2023/10/26 13:44:44;;;;;;;;;;;;;;;9.35;100.00;99605.91;5025485;28;19929;-81
2023/10/26 13:47:29;;;;;;;;;;;;;;;9.34;100.00;99603.34;5043473;28;20020;-80
2023/10/26 13:50:15;;;;;;;;;;;;;;;9.34;100.00;99605.97;5043266;28;20590;-81
2023/10/26 13:53:01;;;;;;;;;;;;;;;9.30;100.00;99594.75;5040605;28;20449;-82
2023/10/26 13:55:49;;;;;;;;;;;;;;;9.29;100.00;99600.13;5036844;28;19932;-82
2023/10/26 13:58:35;;;;;;;;;;;;;;;9.24;100.00;99592.47;5002491;28;20547;-81
2023/10/26 14:01:20;;;;;;;;;;;;;;;9.21;100.00;99584.75;5021123;28;19940;-81
2023/10/26 14:04:06;;;;;;;;;;;;;;;9.18;100.00;99590.19;5009638;28;20396;-81
2023/10/26 14:06:52;;;;;;;;;;;;;;;9.15;100.00;99587.75;5038910;28;19935;-82
2023/10/26 14:09:37;;;;;;;;;;;;;;;9.14;100.00;99583.41;5026468;28;19925;-82
2023/10/26 14:12:23;;;;;;;;;;;;;;;9.13;100.00;99582.56;5040466;28;19987;-81
2023/10/26 14:15:10;;;;;;;;;;;;;;;9.12;100.00;99583.50;5037355;28;19929;-82
2023/10/26 14:17:56;;;;;;;;;;;;;;;9.12;100.00;99578.22;5038463;28;19940;-81
2023/10/26 14:20:42;;;;;;;;;;;;;;;9.10;100.00;99573.03;5037991;28;19983;-82
2023/10/26 14:23:27;;;;;;;;;;;;;;;9.12;100.00;99566.81;5038988;28;19975;-81
2023/10/26 14:26:15;;;;;;;;;;;;;;;9.13;100.00;99563.22;5038225;28;19964;-81
2023/10/26 14:29:01;;;;;;;;;;;;;;;9.14;100.00;99560.50;5020272;28;21902;-79